Aviation Digital Data Service (ADDS)

Output produced by TAFs form (1932 UTC 16 January 2018)
found at http://www.aviationweather.gov/adds/tafs/
 
KBOS 161722Z 1618/1724 22004KT P6SM BKN025 
     FM170500 18004KT P6SM OVC030 
     FM170800 14004KT 1SM -SN OVC025 
     FM171200 08005KT 1/2SM SN OVC008 
     FM171500 06006KT 1SM -SNRA OVC003 
     FM171800 02007KT 4SM -RA OVC003 
     FM172100 32007KT P6SM OVC025
       
KLGA 161729Z 1618/1724 07004KT P6SM BKN015 BKN030 
     FM162000 15004KT P6SM BKN015 BKN030 
     PROB30 1703/1706 6SM -RA 
     FM170600 VRB04KT 5SM -RA BR OVC010 
     FM170800 07006KT 2SM -RA OVC008 
     FM171400 34009KT 1 1/2SM -RASN BR OVC008 
     FM171600 31012KT 5SM BR BKN015 BKN120 
     FM171800 30014G22KT P6SM SCT025 BKN120
       
KEWR 161729Z 1618/1724 VRB04KT P6SM BKN015 BKN030 
     TEMPO 1618/1620 BKN009 
     FM162000 17004KT P6SM BKN010 BKN030 
     PROB30 1703/1706 6SM -RA 
     FM170600 VRB04KT 5SM -RA BR OVC009 
     FM170800 07006KT 2SM -RASN OVC008 
     FM171200 33009KT 1 1/2SM -SN BR VV008 
     FM171500 31012KT 5SM BR BKN015 BKN120 
     FM171700 30014G22KT P6SM SCT025 BKN120
       
KJFK 161729Z 1618/1724 11004KT P6SM SCT015 BKN030 
     TEMPO 1618/1620 BKN020 
     FM162000 17004KT P6SM BKN015 BKN030 
     PROB30 1703/1706 6SM -RA 
     FM170600 VRB04KT 5SM -RA BR OVC010 
     FM170800 07006KT 2SM -RA OVC008 
     FM171400 34009KT 1 1/2SM -RASN BR OVC008 
     FM171600 31012KT 5SM BR BKN015 BKN120 
     FM171800 30014G22KT P6SM SCT025 BKN120
       
KPHL 161730Z 1618/1724 VRB03KT P6SM BKN060 
     FM170300 VRB03KT 6SM -RA OVC025 
     FM170700 33005KT 5SM -RASN OVC015 
     FM170900 33006KT 2SM -SN OVC015 
     FM171300 32008KT P6SM OVC016 
     FM171500 31011KT P6SM BKN045
       
KIAD 161720Z 1618/1724 VRB03KT P6SM BKN070 
     FM170300 VRB03KT 5SM -SN OVC040 
     FM170600 34005KT 2SM -SN SCT008 BKN015 
     FM171200 33012KT P6SM OVC035 
     FM171700 32014G21KT P6SM SCT150
       
KBWI 161720Z 1618/1724 VRB03KT P6SM BKN080 
     FM170200 00000KT P6SM OVC015 
     FM170600 32004KT 3SM -SN SCT003 OVC008 
     FM170900 32007KT 1SM -SN SCT003 OVC008 
     FM171200 32010KT P6SM BKN015 
     FM171400 32012G20KT P6SM OVC110
       
KDCA 161720Z 1618/1724 VRB03KT P6SM BKN100 
     FM170500 VRB03KT 5SM -SN OVC040 
     FM170800 34005KT 2SM -SN SCT008 OVC015 
     FM171200 33012G18KT P6SM OVC035 
     FM171700 32012G20KT P6SM SCT150
       
KCLT 161740Z 1618/1724 22006KT P6SM BKN250 
     FM170200 VRB03KT P6SM SCT040 OVC080 
     PROB30 1703/1707 3SM -RASN OVC025 
     FM170700 31004KT 2SM -SN SCT007 OVC015 
     FM171300 01007KT P6SM OVC015 
     PROB30 1713/1716 2SM -SN OVC007 
     FM171800 36007KT P6SM SCT045
       
KATL 161930Z 1620/1724 24010KT P6SM SCT045 BKN100 OVC200 
     FM162200 27010KT P6SM -RA SCT015 BKN040 OVC100 
     TEMPO 1623/1624 -RASN 
     FM170000 32012G20KT 5SM -SN OVC015 
     FM170600 32014G25KT P6SM -SN SCT015 OVC060 
     FM170900 32014G25KT P6SM SCT070 
     FM171400 32018G30KT P6SM SKC
       
KMCO 161737Z 1618/1724 04009KT P6SM FEW040 
     FM170200 VRB03KT P6SM SCT250 
     TEMPO 1710/1713 5SM BR SCT008 
     FM171600 31010KT P6SM SCT040 SCT250
       
KTPA 161720Z 1618/1724 02005KT P6SM SKC 
     FM161900 33007KT P6SM SCT050 
     FM170200 VRB04KT P6SM SKC 
     TEMPO 1709/1713 6SM BR MIFG 
     FM171500 32012G18KT P6SM BKN035 
     FM172300 34010KT P6SM SCT035
       
KFLL 161735Z 1618/1724 05012KT P6SM SCT040 
     FM170200 03008KT P6SM SCT040 
     FM170900 34006KT P6SM SCT030 
     FM171500 35010KT P6SM SCT050
       
KMIA 161735Z 1618/1724 05011KT P6SM SCT040 
     FM170100 03006KT P6SM SCT040 
     FM170800 34006KT P6SM SCT030 
     FM171500 35010KT P6SM SCT050
       
KDTW 161731Z 1618/1724 26007KT 4SM -SN BKN030 
     FM162200 23006KT 5SM -SHSN BKN030 
     FM170100 26007KT P6SM BKN030 
     FM170900 23004KT P6SM SCT030 
     FM171400 24011KT P6SM BKN025 
     FM171900 25013G21KT P6SM BKN030
       
KMSP 161720Z 1618/1724 30007KT P6SM FEW015 
     FM162100 28006KT P6SM SCT250 
     FM170500 22005KT P6SM SCT100 BKN250 
     FM171200 20005KT P6SM SCT250 
     FM171700 21010KT P6SM SKC
       
KORD 161741Z 1618/1724 33011KT 6SM -SN SCT025 BKN035 
     TEMPO 1618/1619 5SM -SN BKN020 
     FM162300 31008KT P6SM SCT035 SCT080 
     FM170900 27007KT P6SM FEW007 SCT120 BKN180 
     FM171600 25012G18KT P6SM BKN070
       
KMDW 161741Z 1618/1724 30009KT 6SM -SN SCT018 BKN035 
     TEMPO 1618/1620 5SM -SN BKN018 
     FM162300 30008KT P6SM SCT035 SCT080 
     FM170900 27008KT P6SM FEW007 SCT120 BKN180 
     FM171600 25012G18KT P6SM BKN070
       
KMEM 161730Z 1618/1724 35010KT P6SM SKC 
     FM162200 35009KT P6SM SCT040 
     TEMPO 1622/1624 BKN040 
     FM170000 35008KT P6SM SCT025 OVC035 
     TEMPO 1700/1704 OVC025 
     FM170600 35004KT P6SM SCT035 
     FM171200 36007KT P6SM SKC
       
KDFW 161731Z 1618/1724 36015KT P6SM SCT250 
     FM170000 01007KT P6SM SKC 
     FM171800 13005KT P6SM SKC
       
KIAH 161722Z 1618/1724 36015G24KT 5SM -FZRAPLSN BR OVC013 
     TEMPO 1618/1620 2SM -PLSN BR BKN009 OVC013 
     FM162000 36014G23KT 5SM -SNPL BR OVC015 
     FM162300 36016KT P6SM -SN BKN024 OVC050 
     FM170200 35012KT P6SM OVC050 
     FM170600 35006KT P6SM SCT250 
     FM171500 02010KT P6SM SKC
       
KDEN 161735Z 1618/1724 16007KT P6SM SCT220 
     FM162100 10008KT P6SM SCT220 
     FM170200 19011KT P6SM SKC 
     FM171600 24007KT P6SM FEW200 
     FM172100 08008KT P6SM SCT220
       
KSLC 161733Z 1618/1724 13004KT P6SM FEW120 FEW200 
     FM161900 33005KT P6SM SCT100 BKN200 
     FM170100 35003KT P6SM BKN100 BKN200 
     FM170700 15004KT P6SM SCT100 SCT200 
     FM171900 32005KT P6SM SCT200
       
KSEA 161720Z 1618/1724 18008KT P6SM VCSH SCT040 OVC100 
     FM162100 16006KT P6SM VCSH SCT025 SCT040 BKN100 
     FM170400 11007KT P6SM SCT040 SCT120 BKN200 
     FM170900 11007KT P6SM SCT040 BKN120 
     FM171300 11010KT P6SM VCSH BKN040
       
KSFO 161738Z 1618/1724 03004KT 6SM BR BKN012 OVC020 
     FM162000 27004KT P6SM BKN020 BKN050 
     FM162100 33004KT P6SM SCT050 BKN150 
     FM170400 05004KT P6SM BKN150 
     FM171100 15003KT 6SM BR BKN010 BKN150 
     FM171900 19004KT P6SM SCT015 BKN150 
     FM172200 28004KT P6SM SCT020 BKN150
       
KLAX 161745Z 1618/1724 00000KT 2SM BCFG BR SCT004 SCT080 OVC120 
     FM162000 26010KT 4SM HZ BKN200 
     FM170300 VRB03KT P6SM SCT200 
     FM170600 VRB03KT 3SM BR OVC007 
     FM171400 VRB03KT 5SM BR OVC010 
     FM171700 26006KT P6SM SCT010 
     FM172000 26012KT P6SM BKN200
       
KSAN 161737Z 1618/1724 30007KT P6SM FEW003 BKN200 
     FM170600 VRB03KT 6SM BR BKN007 
     FM171000 30006KT P6SM SCT008 SCT200
       
KLAS 161731Z 1618/1724 VRB04KT P6SM BKN150 BKN200 
     FM162100 09005KT P6SM SCT150 BKN200 
     FM170300 22005KT P6SM SCT250 
     FM171600 VRB04KT P6SM FEW250
       
KPHX 161740Z 1618/1724 09008KT P6SM FEW150 BKN250 
     TEMPO 1618/1621 09010G20KT 
     FM162100 09007KT P6SM SCT150 OVC250 
     FM170700 09006KT P6SM SCT250 
     FM172000 23005KT P6SM SCT250
       
KSDF 161732Z 1618/1724 29009KT P6SM SKC 
     FM170100 29005KT P6SM BKN030 
     FM171300 28005KT P6SM SKC 
     FM172100 27006KT P6SM SCT150
       
KIND 161720Z 1618/1724 24011KT P6SM BKN030 
     FM162100 26008KT P6SM OVC015 
     FM170000 26007KT P6SM OVC010 
     FM170900 29007KT P6SM BKN035